Time;durP1;ratioP1;P1;durP2;ratioP2;P2;SDS_P1;SDS_P2;PMS_P1;PMS_P2;Temp;Humidity;BMP_temperature;BMP_pressure;BME280_temperature;BME280_humidity;BME280_pressure;Samples;Min_cycle;Max_cycle;Signal;HPM_P1;HPM_P2
2022/09/19 00:00:36;;;;;;;;;;;11.20;99.90;;;;;;5014769;28;19972;-30
2022/09/19 00:03:02;;;;;;;;;;;11.20;99.90;;;;;;5017297;28;20091;-31
2022/09/19 00:05:28;;;;;;;;;;;11.20;99.90;;;;;;5017467;28;20285;-30
2022/09/19 00:07:53;;;;;;;;;;;11.20;99.90;;;;;;5014099;28;19917;-30
2022/09/19 00:10:19;;;;;;;;;;;11.20;99.90;;;;;;5015332;28;19924;-31
2022/09/19 00:12:46;;;;;;;;;;;11.20;99.90;;;;;;5002117;28;19921;-30
2022/09/19 00:15:12;;;;;;;;;;;11.20;99.90;;;;;;5014889;28;20259;-31
2022/09/19 00:17:37;;;;;;;;;;;11.20;99.90;;;;;;5026602;28;20298;-30
2022/09/19 00:20:06;;;;;;;;;;;11.20;99.90;;;;;;5009211;28;19917;-31
2022/09/19 00:22:32;;;;;;;;;;;11.20;99.90;;;;;;5018428;28;19917;-31
2022/09/19 00:24:58;;;;;;;;;;;11.20;99.90;;;;;;5012983;28;19921;-31
2022/09/19 00:27:25;;;;;;;;;;;11.20;99.90;;;;;;5032061;28;20016;-31
2022/09/19 00:29:52;;;;;;;;;;;11.20;99.90;;;;;;5012885;28;20443;-31
2022/09/19 00:32:19;;;;;;;;;;;11.30;99.90;;;;;;5013936;28;20333;-31
2022/09/19 00:34:47;;;;;;;;;;;11.20;99.90;;;;;;5015922;28;19963;-31
2022/09/19 00:37:14;;;;;;;;;;;11.20;99.90;;;;;;5009693;28;19921;-31
2022/09/19 00:39:39;;;;;;;;;;;11.20;99.90;;;;;;5014198;28;19917;-31
2022/09/19 00:42:11;;;;;;;;;;;11.20;99.90;;;;;;5009434;28;19948;-31
2022/09/19 00:44:37;;;;;;;;;;;11.20;99.90;;;;;;5015869;28;20294;-31
2022/09/19 00:47:14;;;;;;;;;;;11.20;99.90;;;;;;5030152;28;20290;-30
2022/09/19 00:49:41;;;;;;;;;;;11.10;99.90;;;;;;5006551;28;20359;-31
2022/09/19 00:52:10;;;;;;;;;;;11.10;99.90;;;;;;5014386;28;19916;-31
2022/09/19 00:54:44;;;;;;;;;;;11.20;99.90;;;;;;5016444;28;19924;-31
2022/09/19 00:57:12;;;;;;;;;;;11.10;99.90;;;;;;5013030;28;19956;-30
2022/09/19 00:59:40;;;;;;;;;;;11.10;99.90;;;;;;5034983;28;19917;-32
2022/09/19 01:02:06;;;;;;;;;;;11.10;99.90;;;;;;5010997;28;19918;-31
2022/09/19 01:04:35;;;;;;;;;;;11.10;99.90;;;;;;5015506;28;19924;-32
2022/09/19 01:07:06;;;;;;;;;;;11.00;99.90;;;;;;5022522;28;19916;-31
2022/09/19 01:09:39;;;;;;;;;;;11.00;99.90;;;;;;5012055;28;19917;-31
2022/09/19 01:12:16;;;;;;;;;;;11.00;99.90;;;;;;5031854;28;19923;-31
2022/09/19 01:14:41;;;;;;;;;;;11.00;99.90;;;;;;5006667;28;20384;-31
2022/09/19 01:17:16;;;;;;;;;;;11.10;99.90;;;;;;5025390;28;19976;-31
2022/09/19 01:19:42;;;;;;;;;;;11.10;99.90;;;;;;5012738;28;20097;-30
2022/09/19 01:22:24;;;;;;;;;;;11.00;99.90;;;;;;5031546;28;20354;-31
2022/09/19 01:24:49;;;;;;;;;;;11.10;99.90;;;;;;5012518;28;20019;-31
2022/09/19 01:27:17;;;;;;;;;;;11.10;99.90;;;;;;5030763;28;20404;-31
2022/09/19 01:29:49;;;;;;;;;;;11.00;99.90;;;;;;5009620;28;19917;-31
2022/09/19 01:32:18;;;;;;;;;;;11.00;99.90;;;;;;5028780;28;19963;-31
2022/09/19 01:34:46;;;;;;;;;;;11.00;99.90;;;;;;5016603;28;19917;-30
2022/09/19 01:37:16;;;;;;;;;;;11.00;99.90;;;;;;5014378;28;20374;-30
2022/09/19 01:39:43;;;;;;;;;;;11.00;99.90;;;;;;5014987;28;20332;-31
2022/09/19 01:42:13;;;;;;;;;;;10.90;99.90;;;;;;5014427;28;19921;-31
2022/09/19 01:44:39;;;;;;;;;;;10.90;99.90;;;;;;5005819;28;19984;-31
2022/09/19 01:47:36;;;;;;;;;;;10.90;99.90;;;;;;5014263;28;20406;-30
2022/09/19 01:50:08;;;;;;;;;;;11.00;99.90;;;;;;5018622;28;20766;-32
2022/09/19 01:52:52;;;;;;;;;;;11.00;99.90;;;;;;5029142;28;20349;-31
2022/09/19 01:55:21;;;;;;;;;;;10.90;99.90;;;;;;5033194;28;19917;-31
2022/09/19 01:57:47;;;;;;;;;;;10.90;99.90;;;;;;5028300;28;19925;-31
2022/09/19 02:00:14;;;;;;;;;;;10.90;99.90;;;;;;5034332;28;19917;-30
2022/09/19 02:02:46;;;;;;;;;;;10.90;99.90;;;;;;4989695;28;20337;-32
2022/09/19 02:05:21;;;;;;;;;;;10.80;99.90;;;;;;5030864;28;20016;-31
2022/09/19 02:08:01;;;;;;;;;;;10.80;99.90;;;;;;5006326;28;19925;-30
2022/09/19 02:10:48;;;;;;;;;;;10.80;99.90;;;;;;5012845;28;19971;-31
2022/09/19 02:13:16;;;;;;;;;;;10.80;99.90;;;;;;4966710;28;19972;-31
2022/09/19 02:15:46;;;;;;;;;;;10.80;99.90;;;;;;5013877;28;20358;-31
2022/09/19 02:18:32;;;;;;;;;;;10.80;99.90;;;;;;5014121;28;19963;-30
2022/09/19 02:21:00;;;;;;;;;;;10.90;99.90;;;;;;4995215;28;19917;-30
2022/09/19 02:23:27;;;;;;;;;;;10.90;99.90;;;;;;5015620;28;19917;-31
2022/09/19 02:25:53;;;;;;;;;;;11.00;99.90;;;;;;5027253;28;20383;-31
2022/09/19 02:28:22;;;;;;;;;;;11.00;99.90;;;;;;5010785;28;19921;-31
2022/09/19 02:30:48;;;;;;;;;;;11.00;99.90;;;;;;5013507;28;19925;-31
2022/09/19 02:33:15;;;;;;;;;;;11.00;99.90;;;;;;5010872;28;20363;-31
2022/09/19 02:35:54;;;;;;;;;;;10.90;99.90;;;;;;5012361;28;19921;-31
2022/09/19 02:38:30;;;;;;;;;;;10.90;99.90;;;;;;5017135;28;19927;-31
2022/09/19 02:40:55;;;;;;;;;;;10.90;99.90;;;;;;5011182;28;20294;-31
2022/09/19 02:43:29;;;;;;;;;;;10.80;99.90;;;;;;5022336;28;19917;-31
2022/09/19 02:45:55;;;;;;;;;;;10.90;99.90;;;;;;5026870;28;19926;-32
2022/09/19 02:48:44;;;;;;;;;;;10.90;99.90;;;;;;5011859;28;20331;-31
2022/09/19 02:51:12;;;;;;;;;;;10.90;99.90;;;;;;5007658;28;19972;-31
2022/09/19 02:53:44;;;;;;;;;;;10.90;99.90;;;;;;5017390;28;20449;-31
2022/09/19 02:56:14;;;;;;;;;;;10.90;99.90;;;;;;5014088;28;20023;-32
2022/09/19 02:58:48;;;;;;;;;;;10.90;99.90;;;;;;5013671;28;19921;-31
2022/09/19 03:01:17;;;;;;;;;;;10.90;99.90;;;;;;5013773;28;19917;-31
2022/09/19 03:06:35;;;;;;;;;;;10.90;99.90;;;;;;5030689;28;19940;-31
2022/09/19 03:09:02;;;;;;;;;;;10.90;99.90;;;;;;5013345;28;20295;-31
2022/09/19 03:11:28;;;;;;;;;;;10.90;99.90;;;;;;5031935;28;19924;-31
2022/09/19 03:13:56;;;;;;;;;;;10.90;99.90;;;;;;5014275;28;19921;-31
2022/09/19 03:16:25;;;;;;;;;;;10.90;99.90;;;;;;5011621;28;20401;-32
2022/09/19 03:18:54;;;;;;;;;;;10.90;99.90;;;;;;5011969;28;19968;-31
2022/09/19 03:21:21;;;;;;;;;;;10.80;99.90;;;;;;5012776;28;20347;-31
2022/09/19 03:23:49;;;;;;;;;;;10.80;99.90;;;;;;5006918;28;19928;-31
2022/09/19 03:26:25;;;;;;;;;;;10.80;99.90;;;;;;5013340;28;19924;-31
2022/09/19 03:28:51;;;;;;;;;;;10.70;99.90;;;;;;5013506;28;19917;-31
2022/09/19 03:31:17;;;;;;;;;;;10.70;99.90;;;;;;5011399;28;19917;-32
2022/09/19 03:33:43;;;;;;;;;;;10.70;99.90;;;;;;5013392;28;19975;-32
2022/09/19 03:36:08;;;;;;;;;;;10.70;99.90;;;;;;4996557;28;20345;-32
2022/09/19 03:38:35;;;;;;;;;;;10.70;99.90;;;;;;5013244;28;19917;-31
2022/09/19 03:41:01;;;;;;;;;;;10.70;99.90;;;;;;5011621;28;19978;-31
2022/09/19 03:43:29;;;;;;;;;;;10.70;99.90;;;;;;5004996;28;20000;-32
2022/09/19 03:45:56;;;;;;;;;;;10.60;99.90;;;;;;5007654;28;19921;-32
2022/09/19 03:48:22;;;;;;;;;;;10.60;99.90;;;;;;5009258;28;19924;-31
2022/09/19 03:50:48;;;;;;;;;;;10.50;99.90;;;;;;5012989;28;19917;-31
2022/09/19 03:53:13;;;;;;;;;;;10.50;99.90;;;;;;5014343;28;19995;-31
2022/09/19 03:55:41;;;;;;;;;;;10.60;99.90;;;;;;5013328;28;19921;-31
2022/09/19 03:58:10;;;;;;;;;;;10.50;99.90;;;;;;5007630;28;19917;-32
2022/09/19 04:00:36;;;;;;;;;;;10.60;99.90;;;;;;5021056;28;19917;-31
2022/09/19 04:03:02;;;;;;;;;;;10.60;99.90;;;;;;5012321;28;20400;-31
2022/09/19 04:05:27;;;;;;;;;;;10.50;99.90;;;;;;5012902;28;19983;-31
2022/09/19 04:07:54;;;;;;;;;;;10.50;99.90;;;;;;5013352;28;20302;-31
2022/09/19 04:10:20;;;;;;;;;;;10.40;99.90;;;;;;5018191;28;20381;-31
2022/09/19 04:12:48;;;;;;;;;;;10.40;99.90;;;;;;5036677;28;20023;-31
2022/09/19 04:15:14;;;;;;;;;;;10.30;99.90;;;;;;5014488;28;19924;-31
2022/09/19 04:17:41;;;;;;;;;;;10.30;99.90;;;;;;5014424;28;19984;-31
2022/09/19 04:20:07;;;;;;;;;;;10.30;99.90;;;;;;5014564;28;19960;-31
2022/09/19 04:22:37;;;;;;;;;;;10.20;99.90;;;;;;5025193;28;19918;-31
2022/09/19 04:25:04;;;;;;;;;;;10.20;99.90;;;;;;5018086;28;19917;-31
2022/09/19 04:27:29;;;;;;;;;;;10.20;99.90;;;;;;5014321;28;19988;-32
2022/09/19 04:29:55;;;;;;;;;;;10.30;99.90;;;;;;5016108;28;19944;-31
2022/09/19 04:32:21;;;;;;;;;;;10.30;99.90;;;;;;5015607;28;19996;-31
2022/09/19 04:34:47;;;;;;;;;;;10.30;99.90;;;;;;5020178;28;19925;-31
2022/09/19 04:37:15;;;;;;;;;;;10.40;99.90;;;;;;5016021;28;20375;-31
2022/09/19 04:39:41;;;;;;;;;;;10.50;99.90;;;;;;5013690;28;19924;-31
2022/09/19 04:42:06;;;;;;;;;;;10.50;99.90;;;;;;5011564;28;19917;-32
2022/09/19 04:44:32;;;;;;;;;;;10.60;99.90;;;;;;5030878;28;20378;-32
2022/09/19 04:46:58;;;;;;;;;;;10.60;99.90;;;;;;5034339;28;19925;-31
2022/09/19 04:49:29;;;;;;;;;;;10.70;99.90;;;;;;5032893;28;19928;-32
2022/09/19 04:51:56;;;;;;;;;;;10.70;99.90;;;;;;5018469;28;20015;-31
2022/09/19 04:54:22;;;;;;;;;;;10.70;99.90;;;;;;5010914;28;19933;-32
2022/09/19 04:56:48;;;;;;;;;;;10.70;99.90;;;;;;5015940;28;20236;-31
2022/09/19 04:59:13;;;;;;;;;;;10.80;99.90;;;;;;5017966;28;19976;-31
2022/09/19 05:01:39;;;;;;;;;;;10.80;99.90;;;;;;5012862;28;19921;-32
2022/09/19 05:04:05;;;;;;;;;;;10.80;99.90;;;;;;5016108;28;19917;-32
2022/09/19 05:06:31;;;;;;;;;;;10.80;99.90;;;;;;5018889;28;19949;-32
2022/09/19 05:08:57;;;;;;;;;;;10.80;99.90;;;;;;5014569;28;19974;-31
2022/09/19 05:11:23;;;;;;;;;;;10.80;99.90;;;;;;5014386;28;20378;-31
2022/09/19 05:13:53;;;;;;;;;;;10.80;99.90;;;;;;5009366;28;19929;-31
2022/09/19 05:16:18;;;;;;;;;;;10.70;99.90;;;;;;5020832;28;19921;-31
2022/09/19 05:18:45;;;;;;;;;;;10.80;99.90;;;;;;5018934;28;20159;-31
2022/09/19 05:21:12;;;;;;;;;;;10.80;99.90;;;;;;5008743;28;19929;-32
2022/09/19 05:23:38;;;;;;;;;;;10.80;99.90;;;;;;5007913;28;19924;-32
2022/09/19 05:26:05;;;;;;;;;;;10.80;99.90;;;;;;5015278;28;19967;-31
2022/09/19 05:28:30;;;;;;;;;;;10.90;99.90;;;;;;5029362;28;19947;-31
2022/09/19 05:30:56;;;;;;;;;;;10.90;99.90;;;;;;5015333;28;19921;-32
2022/09/19 05:33:28;;;;;;;;;;;10.90;99.90;;;;;;5010370;28;20370;-31
2022/09/19 05:35:55;;;;;;;;;;;10.80;99.90;;;;;;5000123;28;20359;-31
2022/09/19 05:38:22;;;;;;;;;;;10.80;99.90;;;;;;5013388;28;19917;-31
2022/09/19 05:40:49;;;;;;;;;;;10.80;99.90;;;;;;5014105;28;20464;-31
2022/09/19 05:43:15;;;;;;;;;;;10.90;99.90;;;;;;5014301;28;19924;-32
2022/09/19 05:45:41;;;;;;;;;;;10.90;99.90;;;;;;5013645;28;19917;-31
2022/09/19 05:48:07;;;;;;;;;;;10.90;99.90;;;;;;5013820;28;20436;-31
2022/09/19 05:50:33;;;;;;;;;;;11.00;99.90;;;;;;5017641;28;20359;-32
2022/09/19 05:55:43;;;;;;;;;;;11.10;99.90;;;;;;5022464;28;19924;-30
2022/09/19 05:58:09;;;;;;;;;;;11.10;99.90;;;;;;5011255;28;19925;-30
2022/09/19 06:00:37;;;;;;;;;;;11.10;99.90;;;;;;5011131;28;19923;-31
2022/09/19 06:03:03;;;;;;;;;;;11.10;99.90;;;;;;5014374;28;19917;-31
2022/09/19 06:05:33;;;;;;;;;;;11.10;99.90;;;;;;5014555;28;20322;-30
2022/09/19 06:07:59;;;;;;;;;;;11.10;99.90;;;;;;5012025;28;19952;-30
2022/09/19 06:10:25;;;;;;;;;;;11.10;99.90;;;;;;5014305;28;19916;-31
2022/09/19 06:12:54;;;;;;;;;;;11.00;99.90;;;;;;5022625;28;19923;-31
2022/09/19 06:15:20;;;;;;;;;;;11.00;99.90;;;;;;5012523;28;19917;-32
2022/09/19 06:17:49;;;;;;;;;;;11.00;99.90;;;;;;4997084;28;20425;-31
2022/09/19 06:20:16;;;;;;;;;;;10.90;99.90;;;;;;5008564;28;19917;-31
2022/09/19 06:22:42;;;;;;;;;;;10.90;99.90;;;;;;5009148;28;19924;-31
2022/09/19 06:25:08;;;;;;;;;;;10.90;99.90;;;;;;5026996;28;19917;-31
2022/09/19 06:27:35;;;;;;;;;;;10.90;99.90;;;;;;5008194;28;19917;-32
2022/09/19 06:30:02;;;;;;;;;;;10.90;99.90;;;;;;5013777;28;20371;-31
2022/09/19 06:32:27;;;;;;;;;;;10.90;99.90;;;;;;5030359;28;19968;-31
2022/09/19 06:34:53;;;;;;;;;;;10.90;99.90;;;;;;5010519;28;20402;-31
2022/09/19 06:37:19;;;;;;;;;;;10.90;99.90;;;;;;5019701;28;19925;-32
2022/09/19 06:39:44;;;;;;;;;;;11.10;99.90;;;;;;5010739;28;19948;-31
2022/09/19 06:42:10;;;;;;;;;;;11.20;99.90;;;;;;5019141;28;19917;-31
2022/09/19 06:44:35;;;;;;;;;;;11.30;99.90;;;;;;5029814;28;19917;-31
2022/09/19 06:47:01;;;;;;;;;;;11.50;99.90;;;;;;5030179;28;19917;-31
2022/09/19 06:49:27;;;;;;;;;;;11.60;99.90;;;;;;5013640;28;19917;-31
2022/09/19 06:51:54;;;;;;;;;;;11.70;99.90;;;;;;5015826;28;19928;-31
2022/09/19 06:54:22;;;;;;;;;;;11.70;99.90;;;;;;5018491;28;20342;-31
2022/09/19 06:56:49;;;;;;;;;;;11.80;99.90;;;;;;5026097;28;19927;-32
2022/09/19 06:59:16;;;;;;;;;;;11.70;99.90;;;;;;5013254;28;20008;-31
2022/09/19 07:01:42;;;;;;;;;;;11.80;99.90;;;;;;5029559;28;19978;-31
2022/09/19 07:04:08;;;;;;;;;;;11.80;99.90;;;;;;5013946;28;20347;-31
2022/09/19 07:06:37;;;;;;;;;;;11.80;99.90;;;;;;5010235;28;19925;-31
2022/09/19 07:09:03;;;;;;;;;;;11.70;99.90;;;;;;5013609;28;19924;-31
2022/09/19 07:11:29;;;;;;;;;;;11.80;99.90;;;;;;5013190;28;20015;-31
2022/09/19 07:13:55;;;;;;;;;;;11.80;99.90;;;;;;5013978;28;20381;-31
2022/09/19 07:16:21;;;;;;;;;;;11.80;99.90;;;;;;5030163;28;19921;-31
2022/09/19 07:18:46;;;;;;;;;;;11.90;99.90;;;;;;5029946;28;19924;-31
2022/09/19 07:21:12;;;;;;;;;;;12.00;99.90;;;;;;5000011;28;19917;-31
2022/09/19 07:23:38;;;;;;;;;;;12.00;99.90;;;;;;5000358;28;19917;-31
2022/09/19 07:26:04;;;;;;;;;;;12.10;99.90;;;;;;5007291;28;19921;-32
2022/09/19 07:28:33;;;;;;;;;;;12.10;99.90;;;;;;5011542;28;20406;-31
2022/09/19 07:30:59;;;;;;;;;;;12.20;99.90;;;;;;4997550;28;19918;-32
2022/09/19 07:33:25;;;;;;;;;;;12.30;99.90;;;;;;5043292;28;19960;-31
2022/09/19 07:35:53;;;;;;;;;;;12.40;99.90;;;;;;5043456;28;20322;-31
2022/09/19 07:38:19;;;;;;;;;;;12.40;99.90;;;;;;5024747;28;20375;-31
2022/09/19 07:40:45;;;;;;;;;;;12.50;99.90;;;;;;5031507;28;19916;-31
2022/09/19 07:43:13;;;;;;;;;;;12.50;99.90;;;;;;5025215;28;19916;-31
2022/09/19 07:45:41;;;;;;;;;;;12.50;99.90;;;;;;5029986;28;19917;-32
2022/09/19 07:48:07;;;;;;;;;;;12.50;99.90;;;;;;5026910;28;19917;-31
2022/09/19 07:50:34;;;;;;;;;;;12.60;99.90;;;;;;5011924;28;19924;-31
2022/09/19 07:53:02;;;;;;;;;;;12.80;99.90;;;;;;5008839;28;19917;-31
2022/09/19 07:55:28;;;;;;;;;;;13.10;99.90;;;;;;5041417;28;19917;-32
2022/09/19 07:57:55;;;;;;;;;;;13.40;99.90;;;;;;5023909;28;19944;-32
2022/09/19 08:00:22;;;;;;;;;;;13.60;99.90;;;;;;5017941;28;19925;-31
2022/09/19 08:02:55;;;;;;;;;;;13.80;99.90;;;;;;5009819;28;19917;-31
2022/09/19 08:05:21;;;;;;;;;;;14.10;99.90;;;;;;5017690;28;20374;-31
2022/09/19 08:07:47;;;;;;;;;;;14.20;99.90;;;;;;5019990;28;20125;-31
2022/09/19 08:10:15;;;;;;;;;;;14.40;99.90;;;;;;5015071;28;19917;-31
2022/09/19 08:12:44;;;;;;;;;;;14.30;99.90;;;;;;5020690;28;20003;-31
2022/09/19 08:15:15;;;;;;;;;;;14.30;99.90;;;;;;5019582;28;19951;-32
2022/09/19 08:18:01;;;;;;;;;;;14.20;99.90;;;;;;5015767;28;19944;-31
2022/09/19 08:20:28;;;;;;;;;;;14.20;99.90;;;;;;5010418;28;19924;-31
2022/09/19 08:23:01;;;;;;;;;;;14.30;99.90;;;;;;5016259;28;20326;-31
2022/09/19 08:25:28;;;;;;;;;;;14.50;99.90;;;;;;5003700;28;19975;-31
2022/09/19 08:27:55;;;;;;;;;;;14.80;99.90;;;;;;5018899;28;19916;-31
2022/09/19 08:30:21;;;;;;;;;;;14.70;99.90;;;;;;5008015;28;19920;-31
2022/09/19 08:32:47;;;;;;;;;;;14.70;99.90;;;;;;5026500;28;19923;-32
2022/09/19 08:35:15;;;;;;;;;;;14.70;99.90;;;;;;5028592;28;19924;-31
2022/09/19 08:37:41;;;;;;;;;;;15.00;99.90;;;;;;5030013;28;19978;-31
2022/09/19 08:40:16;;;;;;;;;;;15.00;99.90;;;;;;5031607;28;19917;-31
2022/09/19 08:42:51;;;;;;;;;;;15.10;99.90;;;;;;5024713;28;19971;-32
2022/09/19 08:45:22;;;;;;;;;;;15.30;99.90;;;;;;5039323;28;19917;-32
2022/09/19 08:47:48;;;;;;;;;;;15.70;99.90;;;;;;5016602;28;20387;-32
2022/09/19 08:50:18;;;;;;;;;;;16.30;99.90;;;;;;5030223;28;19924;-32
2022/09/19 08:52:45;;;;;;;;;;;16.70;99.90;;;;;;5025757;28;19956;-32
2022/09/19 08:55:32;;;;;;;;;;;16.90;99.90;;;;;;5013397;28;20015;-31
2022/09/19 08:57:59;;;;;;;;;;;17.20;99.90;;;;;;5027325;28;19921;-32
2022/09/19 09:00:27;;;;;;;;;;;17.40;99.90;;;;;;5012406;28;19925;-33
2022/09/19 09:02:55;;;;;;;;;;;17.80;99.90;;;;;;5014328;28;20203;-33
2022/09/19 09:05:40;;;;;;;;;;;18.20;99.90;;;;;;5028637;28;20023;-33
2022/09/19 09:08:09;;;;;;;;;;;17.90;99.90;;;;;;5024451;28;19924;-32
2022/09/19 09:10:38;;;;;;;;;;;17.40;99.90;;;;;;5032696;28;19959;-32
2022/09/19 09:13:23;;;;;;;;;;;17.20;99.90;;;;;;5028400;28;19968;-33
2022/09/19 09:15:52;;;;;;;;;;;17.10;99.90;;;;;;5027030;28;19917;-31
2022/09/19 09:18:21;;;;;;;;;;;17.30;99.90;;;;;;5029493;28;19967;-33
2022/09/19 09:21:07;;;;;;;;;;;17.80;99.90;;;;;;5031593;28;20405;-33
2022/09/19 09:23:41;;;;;;;;;;;18.40;99.90;;;;;;4990939;28;19917;-32
2022/09/19 09:26:14;;;;;;;;;;;18.60;99.90;;;;;;5010029;28;20313;-32
2022/09/19 09:28:46;;;;;;;;;;;18.60;99.90;;;;;;5013025;28;19928;-32
2022/09/19 09:31:25;;;;;;;;;;;18.80;99.90;;;;;;5011437;28;19986;-32
2022/09/19 09:33:54;;;;;;;;;;;18.90;99.90;;;;;;5014711;28;19924;-33
2022/09/19 09:36:23;;;;;;;;;;;19.00;99.90;;;;;;5031860;28;20380;-32
2022/09/19 09:38:52;;;;;;;;;;;19.20;99.90;;;;;;5007524;28;19928;-32
2022/09/19 09:44:19;;;;;;;;;;;19.40;99.90;;;;;;5031893;28;20003;-33
2022/09/19 09:46:58;;;;;;;;;;;19.60;99.90;;;;;;5014504;28;19971;-33
2022/09/19 09:49:29;;;;;;;;;;;19.70;99.90;;;;;;5024335;28;19972;-32
2022/09/19 09:51:54;;;;;;;;;;;19.40;99.90;;;;;;5002389;28;20325;-32
2022/09/19 09:57:41;;;;;;;;;;;18.30;99.90;;;;;;5020105;28;19921;-32
2022/09/19 10:05:58;;;;;;;;;;;18.00;99.90;;;;;;5021106;28;19917;-32
2022/09/19 10:08:28;;;;;;;;;;;18.90;99.90;;;;;;5015802;28;19917;-33
2022/09/19 10:11:09;;;;;;;;;;;19.20;99.90;;;;;;5010357;28;19943;-30
2022/09/19 10:13:38;;;;;;;;;;;19.20;99.90;;;;;;5025156;28;19923;-30
2022/09/19 10:16:05;;;;;;;;;;;19.30;99.90;;;;;;5024707;28;20375;-30
2022/09/19 10:18:39;;;;;;;;;;;19.40;99.90;;;;;;5014867;28;19921;-30
2022/09/19 10:21:04;;;;;;;;;;;19.10;99.90;;;;;;5014645;28;19917;-30
2022/09/19 10:23:31;;;;;;;;;;;19.30;99.90;;;;;;5009033;28;19923;-33
2022/09/19 10:26:04;;;;;;;;;;;19.60;99.90;;;;;;5020172;28;19924;-31
2022/09/19 10:28:37;;;;;;;;;;;19.60;99.90;;;;;;5011468;28;20347;-31
2022/09/19 10:31:04;;;;;;;;;;;20.10;99.90;;;;;;5020613;28;19917;-31
2022/09/19 10:33:44;;;;;;;;;;;20.20;99.90;;;;;;5008734;28;19924;-31
2022/09/19 10:36:16;;;;;;;;;;;20.80;99.90;;;;;;5004649;28;20476;-31
2022/09/19 10:38:49;;;;;;;;;;;21.40;99.90;;;;;;5015985;28;19968;-31
2022/09/19 10:41:19;;;;;;;;;;;21.40;99.90;;;;;;5016327;28;19932;-31
2022/09/19 10:43:53;;;;;;;;;;;21.70;99.90;;;;;;5015546;28;19959;-31
2022/09/19 10:46:24;;;;;;;;;;;21.70;99.90;;;;;;5011809;28;19917;-31
2022/09/19 10:48:56;;;;;;;;;;;21.00;99.90;;;;;;5016622;28;20279;-31
2022/09/19 10:51:23;;;;;;;;;;;20.30;99.90;;;;;;5022523;28;19917;-31
2022/09/19 10:53:53;;;;;;;;;;;19.50;99.90;;;;;;5015288;28;20086;-31
2022/09/19 10:56:25;;;;;;;;;;;18.80;99.90;;;;;;4996324;28;19925;-31
2022/09/19 10:59:00;;;;;;;;;;;18.80;99.90;;;;;;5035134;28;20301;-31
2022/09/19 11:01:26;;;;;;;;;;;19.50;99.90;;;;;;5008555;28;19929;-31
2022/09/19 11:03:59;;;;;;;;;;;20.40;99.90;;;;;;5012614;28;20097;-31
2022/09/19 11:06:25;;;;;;;;;;;20.90;99.90;;;;;;5013591;28;19991;-31
2022/09/19 11:08:51;;;;;;;;;;;21.00;99.90;;;;;;5010578;28;20353;-31
2022/09/19 11:11:40;;;;;;;;;;;21.30;99.90;;;;;;5019083;28;19917;-31
2022/09/19 11:14:06;;;;;;;;;;;20.70;98.80;;;;;;5033898;28;19917;-31
2022/09/19 11:16:37;;;;;;;;;;;20.80;99.90;;;;;;5033038;28;20310;-31
2022/09/19 11:19:03;;;;;;;;;;;20.40;96.40;;;;;;5001950;28;19917;-31
2022/09/19 11:21:29;;;;;;;;;;;20.00;99.90;;;;;;5009139;28;19927;-32
2022/09/19 11:23:56;;;;;;;;;;;19.70;99.90;;;;;;5028154;28;19917;-32
2022/09/19 11:26:29;;;;;;;;;;;20.00;99.90;;;;;;5026445;28;19961;-31
2022/09/19 11:29:14;;;;;;;;;;;20.70;99.90;;;;;;5020177;28;20274;-32
2022/09/19 11:31:49;;;;;;;;;;;21.50;99.90;;;;;;5032169;28;19970;-32
2022/09/19 11:34:41;;;;;;;;;;;22.40;99.90;;;;;;5027621;28;20367;-32
2022/09/19 11:37:21;;;;;;;;;;;22.80;97.10;;;;;;5005597;28;20374;-31
2022/09/19 11:40:06;;;;;;;;;;;22.60;92.40;;;;;;5037084;28;20368;-32
2022/09/19 11:42:44;;;;;;;;;;;22.80;98.10;;;;;;5001430;28;20011;-31
2022/09/19 11:45:19;;;;;;;;;;;23.10;91.20;;;;;;5025303;28;20378;-32
2022/09/19 11:48:05;;;;;;;;;;;23.70;81.80;;;;;;5014338;28;19916;-32
2022/09/19 11:50:49;;;;;;;;;;;23.60;76.50;;;;;;5028115;28;19963;-32
2022/09/19 11:53:29;;;;;;;;;;;24.00;88.90;;;;;;5028229;28;19925;-31
2022/09/19 11:55:58;;;;;;;;;;;24.10;87.90;;;;;;5022449;28;19932;-31
2022/09/19 11:58:31;;;;;;;;;;;24.30;75.60;;;;;;5024904;28;20406;-31
2022/09/19 12:01:19;;;;;;;;;;;24.00;61.50;;;;;;5023202;28;20051;-32
2022/09/19 12:04:05;;;;;;;;;;;24.20;65.50;;;;;;5009238;28;19924;-31
2022/09/19 12:06:50;;;;;;;;;;;23.40;65.20;;;;;;5024618;28;20343;-31
2022/09/19 12:09:18;;;;;;;;;;;22.30;87.90;;;;;;5026623;28;20302;-31
2022/09/19 12:11:56;;;;;;;;;;;21.20;94.70;;;;;;5028836;28;19916;-31
2022/09/19 12:14:28;;;;;;;;;;;20.00;99.90;;;;;;5007523;28;20425;-30
2022/09/19 12:16:56;;;;;;;;;;;18.40;99.90;;;;;;5035871;28;20300;-31
2022/09/19 12:19:24;;;;;;;;;;;17.30;99.90;;;;;;5019115;28;20379;-32
2022/09/19 12:21:51;;;;;;;;;;;16.50;99.90;;;;;;5022919;28;19925;-31
2022/09/19 12:27:15;;;;;;;;;;;15.20;99.90;;;;;;5023988;28;20395;-31
2022/09/19 12:29:52;;;;;;;;;;;14.70;99.90;;;;;;5010716;28;19925;-31
2022/09/19 12:32:17;;;;;;;;;;;14.40;99.90;;;;;;5019259;28;20453;-31
2022/09/19 12:34:50;;;;;;;;;;;14.30;99.90;;;;;;5011461;28;20004;-31
2022/09/19 12:37:30;;;;;;;;;;;14.30;99.90;;;;;;5021424;28;20362;-31
2022/09/19 12:40:01;;;;;;;;;;;14.20;99.90;;;;;;5016691;28;20000;-31
2022/09/19 12:42:27;;;;;;;;;;;14.20;99.90;;;;;;5028829;28;19921;-31
2022/09/19 12:44:53;;;;;;;;;;;14.40;99.90;;;;;;5028465;28;20353;-30
2022/09/19 12:47:37;;;;;;;;;;;14.40;99.90;;;;;;5031055;28;19924;-30
2022/09/19 12:50:13;;;;;;;;;;;14.50;99.90;;;;;;5008488;28;20327;-30
2022/09/19 12:52:47;;;;;;;;;;;14.70;99.90;;;;;;5033728;28;19947;-31
2022/09/19 12:55:15;;;;;;;;;;;14.80;99.90;;;;;;5007983;28;19917;-31
2022/09/19 12:57:48;;;;;;;;;;;15.00;99.90;;;;;;5030982;28;20363;-31
2022/09/19 13:00:14;;;;;;;;;;;15.40;99.90;;;;;;5018680;28;19964;-31
2022/09/19 13:02:48;;;;;;;;;;;16.00;99.90;;;;;;5015816;28;19921;-31
2022/09/19 13:05:22;;;;;;;;;;;17.00;99.90;;;;;;5032234;28;19917;-31
2022/09/19 13:07:47;;;;;;;;;;;17.90;99.90;;;;;;5017815;28;19917;-32
2022/09/19 13:10:24;;;;;;;;;;;18.90;99.90;;;;;;5037884;28;20264;-32
2022/09/19 13:13:06;;;;;;;;;;;20.10;99.90;;;;;;5000566;28;19917;-32
2022/09/19 13:15:38;;;;;;;;;;;21.20;99.90;;;;;;5040545;28;19979;-32
2022/09/19 13:23:38;;;;;;;;;;;23.00;99.90;;;;;;5034706;28;19917;-32
2022/09/19 13:26:58;;;;;;;;;;;23.60;99.90;;;;;;5016972;28;20007;-39
2022/09/19 13:28:59;;;;;;;;;;;24.10;93.70;;;;;;5023496;28;19923;-32
2022/09/19 13:31:30;;;;;;;;;;;22.90;95.10;;;;;;5021682;28;19917;-30
2022/09/19 13:33:57;;;;;;;;;;;21.70;99.90;;;;;;5032649;28;19917;-31
2022/09/19 13:36:29;;;;;;;;;;;20.60;99.90;;;;;;5031161;28;19929;-30
2022/09/19 13:39:01;;;;;;;;;;;19.00;99.90;;;;;;5031227;28;20379;-30
2022/09/19 13:41:29;;;;;;;;;;;17.50;99.90;;;;;;5016323;28;19963;-30
2022/09/19 13:44:04;;;;;;;;;;;16.70;99.90;;;;;;5007237;28;19924;-30
2022/09/19 13:46:35;;;;;;;;;;;16.20;99.90;;;;;;5032623;28;20041;-30
2022/09/19 13:49:33;;;;;;;;;;;16.10;99.90;;;;;;5020018;28;19954;-30
2022/09/19 13:52:22;;;;;;;;;;;16.20;99.90;;;;;;5019306;28;19966;-30
2022/09/19 13:54:50;;;;;;;;;;;16.70;99.90;;;;;;5030716;28;20298;-30
2022/09/19 13:57:19;;;;;;;;;;;17.10;99.90;;;;;;5033930;28;20015;-30
2022/09/19 13:59:45;;;;;;;;;;;17.10;99.90;;;;;;5021261;28;19917;-30
2022/09/19 14:02:10;;;;;;;;;;;17.40;99.90;;;;;;5024762;28;19916;-30
2022/09/19 14:04:55;;;;;;;;;;;17.50;99.90;;;;;;5027808;28;19940;-30
2022/09/19 14:07:30;;;;;;;;;;;17.40;99.90;;;;;;5025186;28;20336;-30
2022/09/19 14:09:57;;;;;;;;;;;17.20;99.90;;;;;;5018644;28;19924;-29
2022/09/19 14:12:39;;;;;;;;;;;16.90;99.90;;;;;;5023536;28;19924;-30
2022/09/19 14:15:24;;;;;;;;;;;16.70;99.90;;;;;;5033259;28;20366;-30
2022/09/19 14:18:02;;;;;;;;;;;16.50;99.90;;;;;;5021272;28;19925;-31
2022/09/19 14:20:46;;;;;;;;;;;16.40;99.90;;;;;;5019567;28;19974;-29
2022/09/19 14:23:14;;;;;;;;;;;16.30;99.90;;;;;;5034120;28;19917;-29
2022/09/19 14:25:40;;;;;;;;;;;16.60;99.90;;;;;;5017878;28;19921;-30
2022/09/19 14:28:25;;;;;;;;;;;17.30;99.90;;;;;;5015624;28;19960;-42
2022/09/19 14:30:56;;;;;;;;;;;18.00;99.90;;;;;;5031479;28;20295;-30
2022/09/19 14:33:36;;;;;;;;;;;18.20;99.90;;;;;;5029390;28;19917;-30
2022/09/19 14:36:11;;;;;;;;;;;18.10;99.90;;;;;;5022613;28;19916;-30
2022/09/19 14:38:37;;;;;;;;;;;17.90;99.90;;;;;;5025247;28;19916;-30
2022/09/19 14:41:21;;;;;;;;;;;17.70;99.90;;;;;;5016700;28;20032;-31
2022/09/19 14:43:47;;;;;;;;;;;17.90;99.90;;;;;;5026135;28;19968;-30
2022/09/19 14:46:21;;;;;;;;;;;18.90;99.90;;;;;;5018149;28;19921;-31
2022/09/19 14:48:52;;;;;;;;;;;19.90;99.90;;;;;;5041695;28;19920;-31
2022/09/19 14:51:31;;;;;;;;;;;20.80;99.90;;;;;;5003306;28;19971;-30
2022/09/19 14:54:06;;;;;;;;;;;21.60;99.90;;;;;;5025736;28;19968;-31
2022/09/19 14:56:31;;;;;;;;;;;22.30;99.90;;;;;;5013514;28;19975;-30
2022/09/19 14:58:59;;;;;;;;;;;22.60;99.90;;;;;;5019289;28;19917;-30